Purlear, NC

2:42 PM EST on March 03, 2015 (GMT -0500)
Phillips Gap | Change Station
CLOSE
Current Station
Personal Weather Station
Location: Purlear, NC
Elevation: 3064 ft
Nearby Weather Stations

Elev 3064 ft 36.25 °N, 81.41 °W | Updated 10 minutes ago

Overcast
Overcast
49.7 °F
Feels Like 50 °F
N
3.0
Wind Variable Wind from South
Gusts 5.0 mph

Today
High -- | Low -- °F
--% Chance of Precip.
Yesterday
High -- | Low -- °F
Precip. -- in
6:53 AM 6:22 PM
Waxing Gibbous, 97% visible
Pressure 30.10 in
Visibility 10.0 miles
Clouds Scattered Clouds 1300 ft
Overcast 2800 ft
Windchill 50 °F
Dew Point 44 °F
Humidity 81%
Rainfall -999.00 in
Snow Depth Not available.
UV 2 out of 12
Pollen 3.10 out of 12
Air Quality Not available.
Flu Activity Not available.
METAR KGEV 031935Z AUTO 15005KT 10SM SCT013 OVC028 05/M01 A3010 RMK AO2 T00491015

More Conditions Fewer Conditions

Pressure 30.10 in
Visibility 10.0 miles
Clouds Scattered Clouds 1300 ft
Overcast 2800 ft
Windchill 50 °F
Dew Point 44 °F
Humidity 81%
Rainfall -999.00 in
Snow Depth Not available.
UV 2 out of 12
Pollen 3.10 out of 12
Air Quality Not available.
Flu Activity Not available.
METAR KGEV 031935Z AUTO 15005KT 10SM SCT013 OVC028 05/M01 A3010 RMK AO2 T00491015

More Conditions Fewer Conditions

10-Day Weather Forecast

Almanac

Astronomy

Mar. 03, 2015 Rise Set
Actual Time
Civil Twilight
Nautical Twilight
Astronomical Twilight
Moon
Length of Visible Light
Length of Day
Tomorrow will be .
, % of the Moon is Illuminated

Today's Extremes

State Highs State Lows

Community

WunderPhotos

Upload Photos

1,802,217 photos uploaded!

WunderBlogs® & News

Nearby

Air Quality

  Air Quality AQ Index Pollutant
Not available.

Snow Depth

Station Depth Elevation

Earthquake Activity

City Distance Mag. Time & Date
Minimum magnitude displayed is 2.5.

Coastal Water Temperatures

Place Temperature

Nearby Weather Stations